Broken Hill, New South Wales

11:11 AM AEDT on February 14, 2016 (GMT +1100)
Broken Hill | | Change Station
CLOSE
Current Station
Airport
Location: Broken Hill Airport,
Elevation: 958 ft
Nearby Weather Stations

Elev 958 ft 32.00 °S, 141.47 °E | Updated 1 hour ago

Clear
Clear
73 °F
Feels Like 73 °F
N
21
Wind Variable Wind from South

Today
High -- | Low -- °F
--% Chance of Precip.
Yesterday
High -- | Low -- °F
Precip. -- in
Pressure 29.95 in
Visibility 6.2 miles
Clouds
Dew Point 54 °F
Humidity 50%
Rainfall 0.00 in
Snow Depth Not available.
7:10 AM 8:25 PM
Waxing Crescent, 35% visible
METAR YBHI 132300Z AUTO 17018KT 9999 // NCD 23/12 Q1014
Pressure 29.95 in
Visibility 6.2 miles
Clouds
Dew Point 54 °F
Humidity 50%
Rainfall 0.00 in
Snow Depth Not available.
7:10 AM 8:25 PM
Waxing Crescent, 35% visible
METAR YBHI 132300Z AUTO 17018KT 9999 // NCD 23/12 Q1014

10-Day Weather Forecast

No radar image for this location.
×

Almanac

Astronomy

Feb. 14, 2016 Rise Set
Actual Time
Civil Twilight
Nautical Twilight
Astronomical Twilight
Moon
Length of Visible Light
Length of Day
Tomorrow will be .
, % of the Moon is Illuminated

Today's Extremes

Country Highs Country Lows

Community

WunderPhotos

Upload Photos

1,892,709 photos uploaded!

WunderBlog® & News

Nearby

Air Quality

  Air Quality AQ Index Pollutant
Not available.

Snow Depth

Station Depth Elevation

Earthquake Activity

City Distance Mag. Time & Date
Minimum magnitude displayed is 2.5.

Coastal Water Temperatures

Place Temperature

Stations

Nearby Weather Stations

Station Location Temp. Windchill Dew Point Humidity Wind Precip. Elev Updated Type